ΕΜΥ, Εθνική Μετεωρολογική Υπηρεσία - Δελτία Καιρού, Προγνώσεις

ΑΕΡΟΝΑΥΤΙΛΙΑ

GREEK AIRPORTS CODES

TAF LGTT 201000Z 2012/2021 02015KT 9999 FEW018 BKN025 TEMPO 2012/2021 02016G26KT=

EUROPEAN AIRPORTS CODES

LFPO 201530Z 03011KT 9999 SCT020 05/01 Q1044 NOSIG=